Main page
METAR-TAF:

METAR-TAF

Airports :

Palacios Municipal Airport

Palacios, Texas, United States

latitude: 28-43-39N, longitude: 096-15-03W, elevation: 16 ft

Current weather observation

The report was made 47 minutes ago, at 22:53 UTC
Wind 15 mph from the South/Southeast
Temperature 77°F
Humidity 79%
Pressure 29.86 in. Hg
Visibility: 10 miles
Few clouds at a height of 8500 ft

METAR: KPSX 302253Z AUTO 16013KT 10SM FEW085 25/21 A2986 RMK AO2 SLP109 T02500211

Time: 18:40 (23:40 UTC)


TAF: missing

Weather observations and forecasts of more than 4000 airports (METAR and TAF reports).

The available stations are represented by yellow and red dots on the map.

Hover mouse over dot to see the name of the station.

Then click to see weather observations and forecasts.

To change the map : click on the green buttons with a black cross to zoom in, on the green button with a dash to zoom out, or on the green arrows for adjacent maps.


METAR-TAF: